sensor_id;sensor_type;location;lat;lon;timestamp;P1;durP1;ratioP1;P2;durP2;ratioP2
42598;SDS011;28225;42.714;23.860;2022-08-21T00:00:25;9.52;;;3.88;;
42598;SDS011;28225;42.714;23.860;2022-08-21T00:02:54;12.15;;;3.67;;
42598;SDS011;28225;42.714;23.860;2022-08-21T00:05:22;5.80;;;3.78;;
42598;SDS011;28225;42.714;23.860;2022-08-21T00:07:48;7.57;;;4.00;;
42598;SDS011;28225;42.714;23.860;2022-08-21T00:10:14;8.10;;;4.47;;
42598;SDS011;28225;42.714;23.860;2022-08-21T00:12:40;6.80;;;4.38;;
42598;SDS011;28225;42.714;23.860;2022-08-21T00:15:06;7.47;;;4.13;;
42598;SDS011;28225;42.714;23.860;2022-08-21T00:17:36;5.97;;;4.50;;
42598;SDS011;28225;42.714;23.860;2022-08-21T00:20:04;9.23;;;5.00;;
42598;SDS011;28225;42.714;23.860;2022-08-21T00:24:56;10.63;;;4.07;;
42598;SDS011;28225;42.714;23.860;2022-08-21T00:27:21;9.52;;;4.57;;
42598;SDS011;28225;42.714;23.860;2022-08-21T00:29:47;9.93;;;4.20;;
42598;SDS011;28225;42.714;23.860;2022-08-21T00:32:12;9.30;;;4.57;;
42598;SDS011;28225;42.714;23.860;2022-08-21T00:34:38;7.43;;;4.28;;
42598;SDS011;28225;42.714;23.860;2022-08-21T00:37:03;6.22;;;3.80;;
42598;SDS011;28225;42.714;23.860;2022-08-21T00:39:29;9.15;;;4.38;;
42598;SDS011;28225;42.714;23.860;2022-08-21T00:41:54;9.45;;;5.20;;
42598;SDS011;28225;42.714;23.860;2022-08-21T00:44:20;6.07;;;5.15;;
42598;SDS011;28225;42.714;23.860;2022-08-21T00:46:45;6.05;;;4.82;;
42598;SDS011;28225;42.714;23.860;2022-08-21T00:49:11;10.18;;;5.00;;
42598;SDS011;28225;42.714;23.860;2022-08-21T00:51:47;5.70;;;4.82;;
42598;SDS011;28225;42.714;23.860;2022-08-21T00:54:15;9.38;;;5.47;;
42598;SDS011;28225;42.714;23.860;2022-08-21T00:56:42;10.25;;;5.03;;
42598;SDS011;28225;42.714;23.860;2022-08-21T00:59:07;9.73;;;4.75;;
42598;SDS011;28225;42.714;23.860;2022-08-21T01:01:34;9.43;;;4.78;;
42598;SDS011;28225;42.714;23.860;2022-08-21T01:03:59;5.90;;;4.28;;
42598;SDS011;28225;42.714;23.860;2022-08-21T01:06:25;4.95;;;4.20;;
42598;SDS011;28225;42.714;23.860;2022-08-21T01:08:51;6.88;;;5.13;;
42598;SDS011;28225;42.714;23.860;2022-08-21T01:11:16;6.20;;;4.72;;
42598;SDS011;28225;42.714;23.860;2022-08-21T01:13:42;9.50;;;7.13;;
42598;SDS011;28225;42.714;23.860;2022-08-21T01:16:11;6.75;;;4.40;;
42598;SDS011;28225;42.714;23.860;2022-08-21T01:18:37;7.85;;;4.57;;
42598;SDS011;28225;42.714;23.860;2022-08-21T01:21:10;7.80;;;4.70;;
42598;SDS011;28225;42.714;23.860;2022-08-21T01:23:39;9.88;;;5.10;;
42598;SDS011;28225;42.714;23.860;2022-08-21T01:26:06;6.10;;;5.10;;
42598;SDS011;28225;42.714;23.860;2022-08-21T01:28:33;6.53;;;4.72;;
42598;SDS011;28225;42.714;23.860;2022-08-21T01:31:02;11.02;;;5.15;;
42598;SDS011;28225;42.714;23.860;2022-08-21T01:33:28;7.25;;;4.75;;
42598;SDS011;28225;42.714;23.860;2022-08-21T01:35:54;7.60;;;5.18;;
42598;SDS011;28225;42.714;23.860;2022-08-21T01:38:19;8.68;;;4.00;;
42598;SDS011;28225;42.714;23.860;2022-08-21T01:40:45;10.07;;;4.15;;
42598;SDS011;28225;42.714;23.860;2022-08-21T01:43:11;9.73;;;4.15;;
42598;SDS011;28225;42.714;23.860;2022-08-21T01:45:36;6.47;;;3.50;;
42598;SDS011;28225;42.714;23.860;2022-08-21T01:48:02;8.15;;;3.88;;
42598;SDS011;28225;42.714;23.860;2022-08-21T01:50:28;10.43;;;4.13;;
42598;SDS011;28225;42.714;23.860;2022-08-21T01:52:54;7.15;;;3.50;;
42598;SDS011;28225;42.714;23.860;2022-08-21T01:55:19;7.35;;;4.00;;
42598;SDS011;28225;42.714;23.860;2022-08-21T01:57:45;15.00;;;5.00;;
42598;SDS011;28225;42.714;23.860;2022-08-21T02:00:12;7.63;;;3.60;;
42598;SDS011;28225;42.714;23.860;2022-08-21T02:02:40;6.90;;;4.72;;
42598;SDS011;28225;42.714;23.860;2022-08-21T02:05:06;6.68;;;4.55;;
42598;SDS011;28225;42.714;23.860;2022-08-21T02:07:37;7.07;;;4.60;;
42598;SDS011;28225;42.714;23.860;2022-08-21T02:10:07;8.05;;;5.65;;
42598;SDS011;28225;42.714;23.860;2022-08-21T02:12:34;11.10;;;5.80;;
42598;SDS011;28225;42.714;23.860;2022-08-21T02:14:59;8.32;;;5.50;;
42598;SDS011;28225;42.714;23.860;2022-08-21T02:17:25;9.88;;;5.22;;
42598;SDS011;28225;42.714;23.860;2022-08-21T02:19:51;6.90;;;4.75;;
42598;SDS011;28225;42.714;23.860;2022-08-21T02:22:16;10.52;;;4.90;;
42598;SDS011;28225;42.714;23.860;2022-08-21T02:24:41;9.57;;;5.57;;
42598;SDS011;28225;42.714;23.860;2022-08-21T02:27:07;6.80;;;4.57;;
42598;SDS011;28225;42.714;23.860;2022-08-21T02:29:33;7.65;;;5.28;;
42598;SDS011;28225;42.714;23.860;2022-08-21T02:31:58;10.98;;;4.57;;
42598;SDS011;28225;42.714;23.860;2022-08-21T02:34:24;6.35;;;4.25;;
42598;SDS011;28225;42.714;23.860;2022-08-21T02:36:49;8.80;;;4.38;;
42598;SDS011;28225;42.714;23.860;2022-08-21T02:39:15;4.70;;;3.22;;
42598;SDS011;28225;42.714;23.860;2022-08-21T02:41:40;6.53;;;3.15;;
42598;SDS011;28225;42.714;23.860;2022-08-21T02:44:06;7.00;;;4.07;;
42598;SDS011;28225;42.714;23.860;2022-08-21T02:46:31;11.40;;;4.70;;
42598;SDS011;28225;42.714;23.860;2022-08-21T02:48:56;8.35;;;4.47;;
42598;SDS011;28225;42.714;23.860;2022-08-21T02:51:22;9.32;;;4.00;;
42598;SDS011;28225;42.714;23.860;2022-08-21T02:53:48;7.00;;;3.80;;
42598;SDS011;28225;42.714;23.860;2022-08-21T02:56:15;5.93;;;3.95;;
42598;SDS011;28225;42.714;23.860;2022-08-21T02:58:47;7.25;;;4.15;;
42598;SDS011;28225;42.714;23.860;2022-08-21T03:01:16;11.27;;;4.93;;
42598;SDS011;28225;42.714;23.860;2022-08-21T03:03:43;8.32;;;4.72;;
42598;SDS011;28225;42.714;23.860;2022-08-21T03:06:11;9.48;;;3.58;;
42598;SDS011;28225;42.714;23.860;2022-08-21T03:08:38;6.57;;;4.05;;
42598;SDS011;28225;42.714;23.860;2022-08-21T03:11:04;8.45;;;3.70;;
42598;SDS011;28225;42.714;23.860;2022-08-21T03:13:30;5.80;;;3.88;;
42598;SDS011;28225;42.714;23.860;2022-08-21T03:15:55;9.52;;;4.10;;
42598;SDS011;28225;42.714;23.860;2022-08-21T03:18:21;11.55;;;5.22;;
42598;SDS011;28225;42.714;23.860;2022-08-21T03:20:47;9.25;;;4.55;;
42598;SDS011;28225;42.714;23.860;2022-08-21T03:23:13;6.10;;;4.38;;
42598;SDS011;28225;42.714;23.860;2022-08-21T03:25:40;7.28;;;4.65;;
42598;SDS011;28225;42.714;23.860;2022-08-21T03:28:10;6.28;;;4.28;;
42598;SDS011;28225;42.714;23.860;2022-08-21T03:30:38;5.63;;;4.60;;
42598;SDS011;28225;42.714;23.860;2022-08-21T03:33:03;8.50;;;4.90;;
42598;SDS011;28225;42.714;23.860;2022-08-21T03:35:29;7.75;;;4.25;;
42598;SDS011;28225;42.714;23.860;2022-08-21T03:37:54;7.03;;;4.57;;
42598;SDS011;28225;42.714;23.860;2022-08-21T03:40:21;9.32;;;4.63;;
42598;SDS011;28225;42.714;23.860;2022-08-21T03:42:47;6.93;;;3.55;;
42598;SDS011;28225;42.714;23.860;2022-08-21T03:45:13;5.35;;;4.13;;
42598;SDS011;28225;42.714;23.860;2022-08-21T03:47:50;6.00;;;4.70;;
42598;SDS011;28225;42.714;23.860;2022-08-21T03:50:26;8.55;;;4.70;;
42598;SDS011;28225;42.714;23.860;2022-08-21T03:52:53;14.53;;;5.10;;
42598;SDS011;28225;42.714;23.860;2022-08-21T03:55:19;8.20;;;5.45;;
42598;SDS011;28225;42.714;23.860;2022-08-21T03:57:45;7.47;;;4.50;;
42598;SDS011;28225;42.714;23.860;2022-08-21T04:00:10;7.95;;;4.97;;
42598;SDS011;28225;42.714;23.860;2022-08-21T04:02:39;14.95;;;5.03;;
42598;SDS011;28225;42.714;23.860;2022-08-21T04:05:05;10.23;;;6.18;;
42598;SDS011;28225;42.714;23.860;2022-08-21T04:07:31;11.15;;;6.20;;
42598;SDS011;28225;42.714;23.860;2022-08-21T04:09:57;7.72;;;5.15;;
42598;SDS011;28225;42.714;23.860;2022-08-21T04:12:22;9.90;;;6.00;;
42598;SDS011;28225;42.714;23.860;2022-08-21T04:14:48;9.68;;;5.45;;
42598;SDS011;28225;42.714;23.860;2022-08-21T04:17:16;8.98;;;4.63;;
42598;SDS011;28225;42.714;23.860;2022-08-21T04:19:42;10.63;;;5.95;;
42598;SDS011;28225;42.714;23.860;2022-08-21T04:22:07;13.68;;;5.55;;
42598;SDS011;28225;42.714;23.860;2022-08-21T04:37:23;10.02;;;5.68;;
42598;SDS011;28225;42.714;23.860;2022-08-21T04:39:49;17.88;;;10.38;;
42598;SDS011;28225;42.714;23.860;2022-08-21T04:42:15;13.32;;;9.77;;
42598;SDS011;28225;42.714;23.860;2022-08-21T04:44:40;13.55;;;8.95;;
42598;SDS011;28225;42.714;23.860;2022-08-21T04:47:06;11.73;;;9.02;;
42598;SDS011;28225;42.714;23.860;2022-08-21T04:49:32;11.07;;;8.02;;
42598;SDS011;28225;42.714;23.860;2022-08-21T04:51:58;10.38;;;8.15;;
42598;SDS011;28225;42.714;23.860;2022-08-21T04:54:23;14.88;;;8.93;;
42598;SDS011;28225;42.714;23.860;2022-08-21T04:56:49;14.90;;;9.18;;
42598;SDS011;28225;42.714;23.860;2022-08-21T04:59:22;13.27;;;8.38;;
42598;SDS011;28225;42.714;23.860;2022-08-21T05:01:49;16.42;;;6.82;;
42598;SDS011;28225;42.714;23.860;2022-08-21T05:04:16;11.05;;;6.60;;
42598;SDS011;28225;42.714;23.860;2022-08-21T05:06:44;11.68;;;7.38;;
42598;SDS011;28225;42.714;23.860;2022-08-21T05:09:12;13.98;;;6.40;;
42598;SDS011;28225;42.714;23.860;2022-08-21T05:11:40;12.40;;;7.85;;
42598;SDS011;28225;42.714;23.860;2022-08-21T05:14:06;13.73;;;7.93;;
42598;SDS011;28225;42.714;23.860;2022-08-21T05:16:32;14.88;;;9.15;;
42598;SDS011;28225;42.714;23.860;2022-08-21T05:18:58;11.48;;;8.55;;
42598;SDS011;28225;42.714;23.860;2022-08-21T05:21:23;14.32;;;9.90;;
42598;SDS011;28225;42.714;23.860;2022-08-21T05:23:49;13.95;;;10.07;;
42598;SDS011;28225;42.714;23.860;2022-08-21T05:26:15;14.80;;;10.52;;
42598;SDS011;28225;42.714;23.860;2022-08-21T05:28:40;17.10;;;9.30;;
42598;SDS011;28225;42.714;23.860;2022-08-21T05:31:06;12.20;;;9.82;;
42598;SDS011;28225;42.714;23.860;2022-08-21T05:33:31;14.32;;;9.13;;
42598;SDS011;28225;42.714;23.860;2022-08-21T05:35:57;11.75;;;8.60;;
42598;SDS011;28225;42.714;23.860;2022-08-21T05:38:26;11.52;;;8.73;;
42598;SDS011;28225;42.714;23.860;2022-08-21T05:40:53;15.85;;;8.25;;
42598;SDS011;28225;42.714;23.860;2022-08-21T05:43:19;19.85;;;8.32;;
42598;SDS011;28225;42.714;23.860;2022-08-21T05:45:45;17.20;;;8.20;;
42598;SDS011;28225;42.714;23.860;2022-08-21T05:48:18;11.90;;;8.55;;
42598;SDS011;28225;42.714;23.860;2022-08-21T05:50:47;16.50;;;9.13;;
42598;SDS011;28225;42.714;23.860;2022-08-21T05:53:14;22.85;;;15.73;;
42598;SDS011;28225;42.714;23.860;2022-08-21T05:55:41;23.63;;;15.02;;
42598;SDS011;28225;42.714;23.860;2022-08-21T05:58:07;26.48;;;16.63;;
42598;SDS011;28225;42.714;23.860;2022-08-21T06:00:32;30.85;;;18.33;;
42598;SDS011;28225;42.714;23.860;2022-08-21T06:02:58;18.77;;;13.20;;
42598;SDS011;28225;42.714;23.860;2022-08-21T06:05:25;24.05;;;14.30;;
42598;SDS011;28225;42.714;23.860;2022-08-21T06:07:50;19.23;;;13.30;;
42598;SDS011;28225;42.714;23.860;2022-08-21T06:10:16;26.95;;;14.80;;
42598;SDS011;28225;42.714;23.860;2022-08-21T06:12:42;14.57;;;10.23;;
42598;SDS011;28225;42.714;23.860;2022-08-21T06:15:08;13.35;;;10.18;;
42598;SDS011;28225;42.714;23.860;2022-08-21T06:17:34;14.82;;;9.30;;
42598;SDS011;28225;42.714;23.860;2022-08-21T06:19:59;15.68;;;10.27;;
42598;SDS011;28225;42.714;23.860;2022-08-21T06:22:25;11.98;;;8.55;;
42598;SDS011;28225;42.714;23.860;2022-08-21T06:36:49;14.15;;;7.00;;
42598;SDS011;28225;42.714;23.860;2022-08-21T06:39:14;11.30;;;6.97;;
42598;SDS011;28225;42.714;23.860;2022-08-21T06:41:40;19.80;;;7.03;;
42598;SDS011;28225;42.714;23.860;2022-08-21T06:44:05;10.80;;;5.90;;
42598;SDS011;28225;42.714;23.860;2022-08-21T06:46:31;12.18;;;6.10;;
42598;SDS011;28225;42.714;23.860;2022-08-21T06:48:57;9.70;;;5.38;;
42598;SDS011;28225;42.714;23.860;2022-08-21T06:51:23;9.98;;;5.68;;
42598;SDS011;28225;42.714;23.860;2022-08-21T06:53:50;12.45;;;6.43;;
42598;SDS011;28225;42.714;23.860;2022-08-21T06:56:16;10.07;;;6.28;;
42598;SDS011;28225;42.714;23.860;2022-08-21T06:58:42;10.82;;;6.90;;
42598;SDS011;28225;42.714;23.860;2022-08-21T07:01:07;10.50;;;5.95;;
42598;SDS011;28225;42.714;23.860;2022-08-21T07:03:34;7.55;;;5.25;;
42598;SDS011;28225;42.714;23.860;2022-08-21T07:06:02;11.02;;;4.45;;
42598;SDS011;28225;42.714;23.860;2022-08-21T07:08:29;12.00;;;7.55;;
42598;SDS011;28225;42.714;23.860;2022-08-21T07:10:55;12.48;;;5.07;;
42598;SDS011;28225;42.714;23.860;2022-08-21T07:13:22;10.77;;;4.00;;
42598;SDS011;28225;42.714;23.860;2022-08-21T07:15:48;12.32;;;4.38;;
42598;SDS011;28225;42.714;23.860;2022-08-21T07:18:14;7.90;;;4.00;;
42598;SDS011;28225;42.714;23.860;2022-08-21T07:20:39;9.27;;;4.10;;
42598;SDS011;28225;42.714;23.860;2022-08-21T07:23:06;13.85;;;7.32;;
42598;SDS011;28225;42.714;23.860;2022-08-21T07:28:00;11.43;;;7.25;;
42598;SDS011;28225;42.714;23.860;2022-08-21T07:30:26;12.77;;;7.72;;
42598;SDS011;28225;42.714;23.860;2022-08-21T07:32:52;7.38;;;5.03;;
42598;SDS011;28225;42.714;23.860;2022-08-21T07:35:18;10.57;;;5.50;;
42598;SDS011;28225;42.714;23.860;2022-08-21T07:37:44;9.73;;;4.57;;
42598;SDS011;28225;42.714;23.860;2022-08-21T07:40:10;11.02;;;5.20;;
42598;SDS011;28225;42.714;23.860;2022-08-21T07:42:40;9.70;;;4.43;;
42598;SDS011;28225;42.714;23.860;2022-08-21T07:45:10;8.20;;;4.38;;
42598;SDS011;28225;42.714;23.860;2022-08-21T07:47:36;10.23;;;5.30;;
42598;SDS011;28225;42.714;23.860;2022-08-21T07:50:02;13.05;;;7.30;;
42598;SDS011;28225;42.714;23.860;2022-08-21T07:52:28;12.57;;;9.20;;
42598;SDS011;28225;42.714;23.860;2022-08-21T07:54:53;11.45;;;6.53;;
42598;SDS011;28225;42.714;23.860;2022-08-21T07:57:19;13.82;;;10.82;;
42598;SDS011;28225;42.714;23.860;2022-08-21T07:59:44;15.20;;;12.50;;
42598;SDS011;28225;42.714;23.860;2022-08-21T08:02:10;11.55;;;9.18;;
42598;SDS011;28225;42.714;23.860;2022-08-21T08:04:36;15.38;;;10.43;;
42598;SDS011;28225;42.714;23.860;2022-08-21T08:07:02;14.48;;;9.52;;
42598;SDS011;28225;42.714;23.860;2022-08-21T08:09:27;14.10;;;12.60;;
42598;SDS011;28225;42.714;23.860;2022-08-21T08:11:53;10.18;;;5.22;;
42598;SDS011;28225;42.714;23.860;2022-08-21T08:14:18;8.63;;;6.05;;
42598;SDS011;28225;42.714;23.860;2022-08-21T08:16:44;7.10;;;4.50;;
42598;SDS011;28225;42.714;23.860;2022-08-21T08:19:09;9.55;;;5.05;;
42598;SDS011;28225;42.714;23.860;2022-08-21T08:21:34;7.45;;;5.38;;
42598;SDS011;28225;42.714;23.860;2022-08-21T08:24:02;7.65;;;5.25;;
42598;SDS011;28225;42.714;23.860;2022-08-21T08:26:28;7.90;;;5.10;;
42598;SDS011;28225;42.714;23.860;2022-08-21T08:28:53;5.43;;;4.47;;
42598;SDS011;28225;42.714;23.860;2022-08-21T08:31:19;8.40;;;4.72;;
42598;SDS011;28225;42.714;23.860;2022-08-21T08:33:44;7.22;;;5.55;;
42598;SDS011;28225;42.714;23.860;2022-08-21T08:36:14;9.68;;;4.75;;
42598;SDS011;28225;42.714;23.860;2022-08-21T08:38:40;8.77;;;5.40;;
42598;SDS011;28225;42.714;23.860;2022-08-21T08:41:13;8.10;;;5.00;;
42598;SDS011;28225;42.714;23.860;2022-08-21T08:44:04;15.15;;;9.40;;
42598;SDS011;28225;42.714;23.860;2022-08-21T08:46:38;6.00;;;4.80;;
42598;SDS011;28225;42.714;23.860;2022-08-21T08:54:07;7.43;;;5.05;;
42598;SDS011;28225;42.714;23.860;2022-08-21T08:56:35;12.32;;;6.32;;
42598;SDS011;28225;42.714;23.860;2022-08-21T08:59:08;13.68;;;9.88;;
42598;SDS011;28225;42.714;23.860;2022-08-21T09:01:39;9.80;;;5.40;;
42598;SDS011;28225;42.714;23.860;2022-08-21T09:04:04;8.27;;;5.55;;
42598;SDS011;28225;42.714;23.860;2022-08-21T09:12:00;10.20;;;5.80;;
42598;SDS011;28225;42.714;23.860;2022-08-21T09:19:50;13.48;;;7.20;;
42598;SDS011;28225;42.714;23.860;2022-08-21T09:25:12;12.80;;;7.28;;
42598;SDS011;28225;42.714;23.860;2022-08-21T09:27:50;10.40;;;7.43;;
42598;SDS011;28225;42.714;23.860;2022-08-21T09:30:15;9.50;;;6.07;;
42598;SDS011;28225;42.714;23.860;2022-08-21T09:32:41;16.08;;;7.22;;
42598;SDS011;28225;42.714;23.860;2022-08-21T09:35:14;8.30;;;5.70;;
42598;SDS011;28225;42.714;23.860;2022-08-21T09:38:04;12.60;;;6.55;;
42598;SDS011;28225;42.714;23.860;2022-08-21T09:40:54;7.65;;;6.53;;
42598;SDS011;28225;42.714;23.860;2022-08-21T09:43:23;10.32;;;6.63;;
42598;SDS011;28225;42.714;23.860;2022-08-21T09:46:01;7.60;;;6.53;;
42598;SDS011;28225;42.714;23.860;2022-08-21T09:48:45;10.30;;;7.85;;
42598;SDS011;28225;42.714;23.860;2022-08-21T09:51:24;12.00;;;8.45;;
42598;SDS011;28225;42.714;23.860;2022-08-21T09:56:29;9.63;;;6.97;;
42598;SDS011;28225;42.714;23.860;2022-08-21T09:59:17;10.13;;;7.70;;
42598;SDS011;28225;42.714;23.860;2022-08-21T10:01:46;10.18;;;6.90;;
42598;SDS011;28225;42.714;23.860;2022-08-21T10:04:14;13.85;;;7.00;;
42598;SDS011;28225;42.714;23.860;2022-08-21T10:06:41;11.40;;;6.80;;
42598;SDS011;28225;42.714;23.860;2022-08-21T10:09:11;12.73;;;6.50;;
42598;SDS011;28225;42.714;23.860;2022-08-21T10:11:39;7.90;;;6.35;;
42598;SDS011;28225;42.714;23.860;2022-08-21T10:14:11;8.45;;;5.68;;
42598;SDS011;28225;42.714;23.860;2022-08-21T10:16:57;8.27;;;5.38;;
42598;SDS011;28225;42.714;23.860;2022-08-21T10:19:32;10.80;;;5.15;;
42598;SDS011;28225;42.714;23.860;2022-08-21T10:27:30;8.60;;;4.90;;
42598;SDS011;28225;42.714;23.860;2022-08-21T10:32:50;8.95;;;5.15;;
42598;SDS011;28225;42.714;23.860;2022-08-21T10:38:07;9.02;;;6.10;;
42598;SDS011;28225;42.714;23.860;2022-08-21T10:54:57;9.77;;;4.78;;
42598;SDS011;28225;42.714;23.860;2022-08-21T11:00:15;10.15;;;4.93;;
42598;SDS011;28225;42.714;23.860;2022-08-21T11:02:45;6.43;;;4.80;;
42598;SDS011;28225;42.714;23.860;2022-08-21T11:10:42;5.68;;;5.05;;
42598;SDS011;28225;42.714;23.860;2022-08-21T11:13:38;9.23;;;5.20;;
42598;SDS011;28225;42.714;23.860;2022-08-21T11:18:43;7.70;;;5.70;;
42598;SDS011;28225;42.714;23.860;2022-08-21T11:21:37;9.50;;;7.25;;
42598;SDS011;28225;42.714;23.860;2022-08-21T11:26:53;11.02;;;6.22;;
42598;SDS011;28225;42.714;23.860;2022-08-21T11:29:29;8.93;;;5.70;;
42598;SDS011;28225;42.714;23.860;2022-08-21T11:50:40;6.95;;;5.60;;
42598;SDS011;28225;42.714;23.860;2022-08-21T11:53:09;12.07;;;6.22;;
42598;SDS011;28225;42.714;23.860;2022-08-21T11:55:46;8.98;;;5.53;;
42598;SDS011;28225;42.714;23.860;2022-08-21T11:58:16;13.45;;;5.85;;
42598;SDS011;28225;42.714;23.860;2022-08-21T12:00:54;6.57;;;4.85;;
42598;SDS011;28225;42.714;23.860;2022-08-21T12:03:27;7.68;;;5.05;;
42598;SDS011;28225;42.714;23.860;2022-08-21T12:05:58;7.28;;;5.72;;
42598;SDS011;28225;42.714;23.860;2022-08-21T12:08:42;5.70;;;4.72;;
42598;SDS011;28225;42.714;23.860;2022-08-21T12:11:10;7.72;;;4.82;;
42598;SDS011;28225;42.714;23.860;2022-08-21T12:13:56;7.78;;;4.97;;
42598;SDS011;28225;42.714;23.860;2022-08-21T12:16:33;7.78;;;4.50;;
42598;SDS011;28225;42.714;23.860;2022-08-21T12:19:04;5.95;;;4.70;;
42598;SDS011;28225;42.714;23.860;2022-08-21T12:21:50;6.80;;;4.53;;
42598;SDS011;28225;42.714;23.860;2022-08-21T12:34:37;5.20;;;4.70;;
42598;SDS011;28225;42.714;23.860;2022-08-21T12:37:16;7.43;;;5.07;;
42598;SDS011;28225;42.714;23.860;2022-08-21T12:39:46;7.50;;;5.03;;
42598;SDS011;28225;42.714;23.860;2022-08-21T12:42:24;8.82;;;5.35;;
42598;SDS011;28225;42.714;23.860;2022-08-21T12:45:04;9.68;;;5.53;;
42598;SDS011;28225;42.714;23.860;2022-08-21T12:47:43;7.85;;;5.82;;
42598;SDS011;28225;42.714;23.860;2022-08-21T12:50:19;8.18;;;4.65;;
42598;SDS011;28225;42.714;23.860;2022-08-21T12:55:45;6.82;;;4.63;;
42598;SDS011;28225;42.714;23.860;2022-08-21T12:58:20;8.68;;;4.93;;
42598;SDS011;28225;42.714;23.860;2022-08-21T13:00:49;6.50;;;4.70;;
42598;SDS011;28225;42.714;23.860;2022-08-21T13:03:21;10.55;;;5.13;;
42598;SDS011;28225;42.714;23.860;2022-08-21T13:05:47;7.25;;;5.10;;
42598;SDS011;28225;42.714;23.860;2022-08-21T13:08:13;6.60;;;4.82;;
42598;SDS011;28225;42.714;23.860;2022-08-21T13:10:39;7.68;;;5.30;;
42598;SDS011;28225;42.714;23.860;2022-08-21T13:13:06;5.85;;;4.50;;
42598;SDS011;28225;42.714;23.860;2022-08-21T13:15:35;5.28;;;4.60;;
42598;SDS011;28225;42.714;23.860;2022-08-21T13:18:02;6.93;;;4.80;;
42598;SDS011;28225;42.714;23.860;2022-08-21T13:20:33;5.53;;;4.85;;
42598;SDS011;28225;42.714;23.860;2022-08-21T13:23:01;9.52;;;5.38;;
42598;SDS011;28225;42.714;23.860;2022-08-21T13:25:29;7.65;;;5.32;;
42598;SDS011;28225;42.714;23.860;2022-08-21T13:28:05;8.68;;;5.43;;
42598;SDS011;28225;42.714;23.860;2022-08-21T13:30:32;6.80;;;4.80;;
42598;SDS011;28225;42.714;23.860;2022-08-21T13:33:00;10.05;;;5.68;;
42598;SDS011;28225;42.714;23.860;2022-08-21T13:35:28;7.83;;;4.93;;
42598;SDS011;28225;42.714;23.860;2022-08-21T13:37:56;8.73;;;4.90;;
42598;SDS011;28225;42.714;23.860;2022-08-21T13:40:25;6.65;;;4.93;;
42598;SDS011;28225;42.714;23.860;2022-08-21T13:43:15;6.90;;;5.75;;
42598;SDS011;28225;42.714;23.860;2022-08-21T13:45:52;8.10;;;4.60;;
42598;SDS011;28225;42.714;23.860;2022-08-21T13:48:19;9.05;;;4.95;;
42598;SDS011;28225;42.714;23.860;2022-08-21T13:50:45;5.97;;;4.93;;
42598;SDS011;28225;42.714;23.860;2022-08-21T13:55:57;8.65;;;5.20;;
42598;SDS011;28225;42.714;23.860;2022-08-21T13:58:27;7.63;;;5.05;;
42598;SDS011;28225;42.714;23.860;2022-08-21T14:00:53;9.60;;;4.85;;
42598;SDS011;28225;42.714;23.860;2022-08-21T14:03:27;11.90;;;6.00;;
42598;SDS011;28225;42.714;23.860;2022-08-21T14:05:55;9.32;;;5.07;;
42598;SDS011;28225;42.714;23.860;2022-08-21T14:08:33;9.40;;;4.88;;
42598;SDS011;28225;42.714;23.860;2022-08-21T14:11:00;8.07;;;5.60;;
42598;SDS011;28225;42.714;23.860;2022-08-21T14:16:46;8.75;;;5.28;;
42598;SDS011;28225;42.714;23.860;2022-08-21T14:19:36;10.90;;;5.85;;
42598;SDS011;28225;42.714;23.860;2022-08-21T14:24:47;11.48;;;5.00;;
42598;SDS011;28225;42.714;23.860;2022-08-21T14:27:15;8.02;;;5.18;;
42598;SDS011;28225;42.714;23.860;2022-08-21T14:29:42;12.85;;;5.72;;
42598;SDS011;28225;42.714;23.860;2022-08-21T14:32:15;8.80;;;4.45;;
42598;SDS011;28225;42.714;23.860;2022-08-21T14:34:44;6.35;;;4.90;;
42598;SDS011;28225;42.714;23.860;2022-08-21T14:37:10;6.25;;;4.55;;
42598;SDS011;28225;42.714;23.860;2022-08-21T14:39:35;9.55;;;5.15;;
42598;SDS011;28225;42.714;23.860;2022-08-21T14:42:01;8.35;;;5.75;;
42598;SDS011;28225;42.714;23.860;2022-08-21T14:44:27;5.60;;;5.03;;
42598;SDS011;28225;42.714;23.860;2022-08-21T14:46:53;6.35;;;4.90;;
42598;SDS011;28225;42.714;23.860;2022-08-21T14:49:18;11.43;;;5.80;;
42598;SDS011;28225;42.714;23.860;2022-08-21T14:51:44;9.80;;;4.63;;
42598;SDS011;28225;42.714;23.860;2022-08-21T14:54:09;7.65;;;5.20;;
42598;SDS011;28225;42.714;23.860;2022-08-21T14:56:35;6.85;;;4.75;;
42598;SDS011;28225;42.714;23.860;2022-08-21T14:59:02;8.77;;;5.50;;
42598;SDS011;28225;42.714;23.860;2022-08-21T15:01:30;7.10;;;5.35;;
42598;SDS011;28225;42.714;23.860;2022-08-21T15:03:56;12.48;;;5.18;;
42598;SDS011;28225;42.714;23.860;2022-08-21T15:06:22;7.72;;;5.47;;
42598;SDS011;28225;42.714;23.860;2022-08-21T15:08:47;6.18;;;5.50;;
42598;SDS011;28225;42.714;23.860;2022-08-21T15:11:16;10.02;;;5.28;;
42598;SDS011;28225;42.714;23.860;2022-08-21T15:13:43;7.45;;;5.28;;
42598;SDS011;28225;42.714;23.860;2022-08-21T15:16:10;5.97;;;5.22;;
42598;SDS011;28225;42.714;23.860;2022-08-21T15:18:36;10.88;;;5.18;;
42598;SDS011;28225;42.714;23.860;2022-08-21T15:21:02;9.07;;;5.20;;
42598;SDS011;28225;42.714;23.860;2022-08-21T15:23:27;8.43;;;5.13;;
42598;SDS011;28225;42.714;23.860;2022-08-21T15:25:53;7.47;;;4.75;;
42598;SDS011;28225;42.714;23.860;2022-08-21T15:28:20;9.25;;;5.88;;
42598;SDS011;28225;42.714;23.860;2022-08-21T15:30:46;6.72;;;5.07;;
42598;SDS011;28225;42.714;23.860;2022-08-21T15:33:12;8.15;;;5.07;;
42598;SDS011;28225;42.714;23.860;2022-08-21T15:35:38;9.65;;;5.07;;
42598;SDS011;28225;42.714;23.860;2022-08-21T15:38:04;6.45;;;4.85;;
42598;SDS011;28225;42.714;23.860;2022-08-21T15:40:30;7.40;;;6.05;;
42598;SDS011;28225;42.714;23.860;2022-08-21T15:42:57;7.72;;;4.82;;
42598;SDS011;28225;42.714;23.860;2022-08-21T15:45:24;8.18;;;4.80;;
42598;SDS011;28225;42.714;23.860;2022-08-21T15:47:51;8.93;;;5.25;;
42598;SDS011;28225;42.714;23.860;2022-08-21T15:50:16;10.27;;;5.55;;
42598;SDS011;28225;42.714;23.860;2022-08-21T15:52:42;6.88;;;4.75;;
42598;SDS011;28225;42.714;23.860;2022-08-21T15:55:08;9.10;;;4.57;;
42598;SDS011;28225;42.714;23.860;2022-08-21T15:57:34;8.98;;;5.70;;
42598;SDS011;28225;42.714;23.860;2022-08-21T16:00:03;8.38;;;5.43;;
42598;SDS011;28225;42.714;23.860;2022-08-21T16:02:37;8.52;;;5.50;;
42598;SDS011;28225;42.714;23.860;2022-08-21T16:05:04;11.65;;;5.78;;
42598;SDS011;28225;42.714;23.860;2022-08-21T16:07:30;7.38;;;4.82;;
42598;SDS011;28225;42.714;23.860;2022-08-21T16:09:56;8.07;;;5.43;;
42598;SDS011;28225;42.714;23.860;2022-08-21T16:12:29;9.25;;;5.65;;
42598;SDS011;28225;42.714;23.860;2022-08-21T16:14:57;8.43;;;5.90;;
42598;SDS011;28225;42.714;23.860;2022-08-21T16:17:26;9.40;;;5.45;;
42598;SDS011;28225;42.714;23.860;2022-08-21T16:19:53;8.45;;;5.90;;
42598;SDS011;28225;42.714;23.860;2022-08-21T16:22:19;7.80;;;5.05;;
42598;SDS011;28225;42.714;23.860;2022-08-21T16:24:45;9.93;;;5.47;;
42598;SDS011;28225;42.714;23.860;2022-08-21T16:27:10;8.77;;;5.88;;
42598;SDS011;28225;42.714;23.860;2022-08-21T16:29:36;11.30;;;5.65;;
42598;SDS011;28225;42.714;23.860;2022-08-21T16:32:02;10.32;;;5.38;;
42598;SDS011;28225;42.714;23.860;2022-08-21T16:34:28;7.63;;;5.57;;
42598;SDS011;28225;42.714;23.860;2022-08-21T16:36:54;9.68;;;5.35;;
42598;SDS011;28225;42.714;23.860;2022-08-21T16:39:19;9.32;;;5.75;;
42598;SDS011;28225;42.714;23.860;2022-08-21T16:41:45;8.90;;;6.03;;
42598;SDS011;28225;42.714;23.860;2022-08-21T16:44:13;8.23;;;6.10;;